createdAt,value
2018-09-17T00:01:28.423Z,99.90
2018-09-17T00:03:56.856Z,99.90
2018-09-17T00:06:25.330Z,99.90
2018-09-17T00:08:53.944Z,99.90
2018-09-17T00:11:23.019Z,99.90
2018-09-17T00:13:51.463Z,99.90
2018-09-17T00:16:19.951Z,99.90
2018-09-17T00:18:48.712Z,99.90
2018-09-17T00:21:17.181Z,99.90
2018-09-17T00:23:45.769Z,99.90
2018-09-17T00:26:14.324Z,99.90
2018-09-17T00:28:42.774Z,99.90
2018-09-17T00:31:11.187Z,99.90
2018-09-17T00:33:39.642Z,99.90
2018-09-17T00:36:08.087Z,99.90
2018-09-17T00:38:36.578Z,99.90
2018-09-17T00:41:05.040Z,99.90
2018-09-17T00:43:33.511Z,99.90
2018-09-17T00:46:02.050Z,99.90
2018-09-17T00:48:30.537Z,99.90
2018-09-17T00:50:59.013Z,99.90
2018-09-17T00:53:27.509Z,99.90
2018-09-17T00:55:56.662Z,99.90
2018-09-17T00:58:25.842Z,99.90
2018-09-17T01:00:55.203Z,99.90
2018-09-17T01:03:23.692Z,99.90
2018-09-17T01:05:52.315Z,99.90
2018-09-17T01:08:20.833Z,99.90
2018-09-17T01:10:50.043Z,99.90
2018-09-17T01:13:18.690Z,99.90
2018-09-17T01:15:47.224Z,99.90
2018-09-17T01:18:15.741Z,99.90
2018-09-17T01:20:44.234Z,99.90
2018-09-17T01:23:12.709Z,99.90
2018-09-17T01:25:41.178Z,99.90
2018-09-17T01:28:09.716Z,99.90
2018-09-17T01:30:38.316Z,99.90
2018-09-17T01:33:06.973Z,99.90
2018-09-17T01:35:35.466Z,99.90
2018-09-17T01:38:03.897Z,99.90
2018-09-17T01:40:32.388Z,99.90
2018-09-17T01:43:00.918Z,99.90
2018-09-17T01:45:29.507Z,99.90
2018-09-17T01:47:58.036Z,99.90
2018-09-17T01:50:26.482Z,99.90
2018-09-17T01:52:54.946Z,99.90
2018-09-17T01:55:23.493Z,99.90
2018-09-17T01:57:51.985Z,99.90
2018-09-17T02:00:20.651Z,99.90
2018-09-17T02:02:49.891Z,99.90
2018-09-17T02:05:18.408Z,99.90
2018-09-17T02:07:46.978Z,99.90
2018-09-17T02:10:15.473Z,99.90
2018-09-17T02:12:43.938Z,99.90
2018-09-17T02:15:12.406Z,99.90
2018-09-17T02:17:40.983Z,99.90
2018-09-17T02:20:09.475Z,99.90
2018-09-17T02:22:39.074Z,99.90
2018-09-17T02:25:08.313Z,99.90
2018-09-17T02:27:36.866Z,99.90
2018-09-17T02:30:05.647Z,99.90
2018-09-17T02:32:34.175Z,99.90
2018-09-17T02:35:02.647Z,99.90
2018-09-17T02:37:31.163Z,99.90
2018-09-17T02:39:59.670Z,99.90
2018-09-17T02:42:28.198Z,99.90
2018-09-17T02:44:57.338Z,99.90
2018-09-17T02:47:25.942Z,99.90
2018-09-17T02:49:54.460Z,99.90
2018-09-17T02:52:22.969Z,99.90
2018-09-17T02:54:51.522Z,99.90
2018-09-17T02:57:19.983Z,99.90
2018-09-17T02:59:48.522Z,99.90
2018-09-17T03:02:17.728Z,99.90
2018-09-17T03:04:46.201Z,99.90
2018-09-17T03:07:14.807Z,99.90
2018-09-17T03:09:43.218Z,99.90
2018-09-17T03:12:11.718Z,99.90
2018-09-17T03:14:40.244Z,99.90
2018-09-17T03:17:13.434Z,99.90
2018-09-17T03:19:42.836Z,99.90
2018-09-17T03:22:11.871Z,99.90
2018-09-17T03:24:41.013Z,99.90
2018-09-17T03:27:09.734Z,99.90
2018-09-17T03:29:38.215Z,99.90
2018-09-17T03:32:06.937Z,99.90
2018-09-17T03:34:35.442Z,99.90
2018-09-17T03:37:04.688Z,99.90
2018-09-17T03:39:33.214Z,99.90
2018-09-17T03:42:01.776Z,99.90
2018-09-17T03:44:30.397Z,99.90
2018-09-17T03:46:58.906Z,99.90
2018-09-17T03:49:27.986Z,99.90
2018-09-17T03:51:56.438Z,99.90
2018-09-17T03:54:24.949Z,99.90
2018-09-17T03:56:53.419Z,99.90
2018-09-17T03:59:21.921Z,99.90
2018-09-17T04:01:50.398Z,99.90
2018-09-17T04:04:18.882Z,99.90
2018-09-17T04:06:48.118Z,99.90
2018-09-17T04:09:16.567Z,99.90
2018-09-17T04:11:45.082Z,99.90
2018-09-17T04:14:13.546Z,99.90
2018-09-17T04:16:41.964Z,99.90
2018-09-17T04:19:10.418Z,99.90
2018-09-17T04:21:38.894Z,99.90
2018-09-17T04:24:07.388Z,99.90
2018-09-17T04:26:35.908Z,99.90
2018-09-17T04:29:04.418Z,99.90
2018-09-17T04:31:32.936Z,99.90
2018-09-17T04:34:01.389Z,99.90
2018-09-17T04:36:29.906Z,99.90
2018-09-17T04:38:58.432Z,99.90
2018-09-17T04:41:26.934Z,99.90
2018-09-17T04:43:56.178Z,99.90
2018-09-17T04:46:24.643Z,99.90
2018-09-17T04:48:53.105Z,99.90
2018-09-17T04:54:03.292Z,99.90
2018-09-17T04:56:31.788Z,99.90
2018-09-17T04:59:00.271Z,99.90
2018-09-17T05:01:28.780Z,99.90
2018-09-17T05:03:57.247Z,99.90
2018-09-17T05:06:25.782Z,99.90
2018-09-17T05:08:54.278Z,99.90
2018-09-17T05:11:22.867Z,99.90
2018-09-17T05:13:51.331Z,99.90
2018-09-17T05:16:19.821Z,99.90
2018-09-17T05:18:48.368Z,99.90
2018-09-17T05:21:16.861Z,99.90
2018-09-17T05:23:45.302Z,99.90
2018-09-17T05:26:13.884Z,99.90
2018-09-17T05:28:42.430Z,99.90
2018-09-17T05:31:11.428Z,99.90
2018-09-17T05:33:41.093Z,99.90
2018-09-17T05:36:09.616Z,99.90
2018-09-17T05:38:38.236Z,99.90
2018-09-17T05:41:06.715Z,99.90
2018-09-17T05:43:35.248Z,99.90
2018-09-17T05:46:03.794Z,99.90
2018-09-17T05:48:32.422Z,99.90
2018-09-17T05:51:00.969Z,99.90
2018-09-17T05:53:29.814Z,99.90
2018-09-17T05:55:58.490Z,99.90
2018-09-17T05:58:27.035Z,99.90
2018-09-17T06:00:55.590Z,99.90
2018-09-17T06:03:24.111Z,99.90
2018-09-17T06:05:52.633Z,99.90
2018-09-17T06:08:21.839Z,99.90
2018-09-17T06:10:50.446Z,99.90
2018-09-17T06:13:19.238Z,99.90
2018-09-17T06:15:48.049Z,99.90
2018-09-17T06:18:16.638Z,99.90
2018-09-17T06:20:45.146Z,99.90
2018-09-17T06:23:13.646Z,99.90
2018-09-17T06:25:42.208Z,99.90
2018-09-17T06:28:10.706Z,99.90
2018-09-17T06:30:39.219Z,99.90
2018-09-17T06:33:08.715Z,99.90
2018-09-17T06:35:37.244Z,99.90
2018-09-17T06:38:05.703Z,99.90
2018-09-17T06:40:34.154Z,99.90
2018-09-17T06:43:02.750Z,99.90
2018-09-17T06:45:31.359Z,99.90
2018-09-17T06:47:59.922Z,99.90
2018-09-17T06:50:29.183Z,99.90
2018-09-17T06:52:57.666Z,99.90
2018-09-17T06:55:26.221Z,99.90
2018-09-17T06:57:54.684Z,99.90
2018-09-17T07:00:23.219Z,99.90
2018-09-17T07:02:51.696Z,99.90
2018-09-17T07:05:20.234Z,99.90
2018-09-17T07:07:48.830Z,99.90
2018-09-17T07:10:17.366Z,99.90
2018-09-17T07:12:46.100Z,99.90
2018-09-17T07:15:14.586Z,99.90
2018-09-17T07:17:43.071Z,99.90
2018-09-17T07:20:11.666Z,99.90
2018-09-17T07:22:40.275Z,99.90
2018-09-17T07:25:08.832Z,99.90
2018-09-17T07:27:37.331Z,99.90
2018-09-17T07:30:05.926Z,99.90
2018-09-17T07:32:34.474Z,99.90
2018-09-17T07:35:03.099Z,99.90
2018-09-17T07:37:31.609Z,99.90
2018-09-17T07:40:00.103Z,99.90
2018-09-17T07:42:28.629Z,99.90
2018-09-17T07:44:57.075Z,99.90
2018-09-17T07:47:25.607Z,99.90
2018-09-17T07:49:54.203Z,99.90
2018-09-17T07:52:22.709Z,99.90
2018-09-17T07:54:51.321Z,99.90
2018-09-17T07:57:19.849Z,99.90
2018-09-17T07:59:48.390Z,99.90
2018-09-17T08:02:16.892Z,99.90
2018-09-17T08:04:45.388Z,99.90
2018-09-17T08:07:14.764Z,99.90
2018-09-17T08:09:43.302Z,99.90
2018-09-17T08:12:11.986Z,99.90
2018-09-17T08:14:40.578Z,99.90
2018-09-17T08:17:09.579Z,99.90
2018-09-17T08:19:38.187Z,99.90
2018-09-17T08:22:07.202Z,99.90
2018-09-17T08:24:35.945Z,99.90
2018-09-17T08:27:04.564Z,99.90
2018-09-17T08:29:33.099Z,99.90
2018-09-17T08:32:01.855Z,99.90
2018-09-17T08:34:30.698Z,99.90
2018-09-17T08:36:59.330Z,99.70
2018-09-17T08:39:28.420Z,98.50
2018-09-17T08:41:57.364Z,98.80
2018-09-17T08:44:25.901Z,98.70
2018-09-17T08:46:54.432Z,98.10
2018-09-17T08:49:22.956Z,98.70
2018-09-17T08:51:51.825Z,98.20
2018-09-17T08:54:20.390Z,99.00
2018-09-17T08:57:10.183Z,98.60
2018-09-17T08:59:44.067Z,98.00
2018-09-17T09:02:15.855Z,97.40
2018-09-17T09:04:50.050Z,97.00
2018-09-17T09:07:24.040Z,96.80
2018-09-17T09:09:56.845Z,95.30
2018-09-17T09:12:30.304Z,95.30
2018-09-17T09:15:04.182Z,95.60
2018-09-17T09:17:32.797Z,94.50
2018-09-17T09:20:01.366Z,94.50
2018-09-17T09:22:30.372Z,93.90
2018-09-17T09:24:59.039Z,93.40
2018-09-17T09:27:27.829Z,93.10
2018-09-17T09:29:56.463Z,92.50
2018-09-17T09:32:25.053Z,91.50
2018-09-17T09:34:53.616Z,91.90
2018-09-17T09:37:22.465Z,91.10
2018-09-17T09:39:50.977Z,91.00
2018-09-17T09:42:19.411Z,89.60
2018-09-17T09:44:47.847Z,87.50
2018-09-17T09:47:16.456Z,88.10
2018-09-17T09:49:44.970Z,86.90
2018-09-17T09:52:13.472Z,86.30
2018-09-17T09:54:41.947Z,85.40
2018-09-17T09:57:10.621Z,87.20
2018-09-17T09:59:39.392Z,88.10
2018-09-17T10:02:13.213Z,84.60
2018-09-17T10:04:41.688Z,86.40
2018-09-17T10:07:10.206Z,83.80
2018-09-17T10:09:44.127Z,83.40
2018-09-17T10:12:18.373Z,83.50
2018-09-17T10:14:52.201Z,82.40
2018-09-17T10:17:26.092Z,81.90
2018-09-17T10:19:54.508Z,81.50
2018-09-17T10:22:22.992Z,81.40
2018-09-17T10:24:51.703Z,79.80
2018-09-17T10:27:20.238Z,78.40
2018-09-17T10:29:48.991Z,79.00
2018-09-17T10:32:17.851Z,77.90
2018-09-17T10:34:46.976Z,76.70
2018-09-17T10:37:15.624Z,76.10
2018-09-17T10:39:44.354Z,74.80
2018-09-17T10:42:12.848Z,73.80
2018-09-17T10:44:41.339Z,74.10
2018-09-17T10:47:10.611Z,75.80
2018-09-17T10:49:39.338Z,71.50
2018-09-17T10:52:08.017Z,70.60
2018-09-17T10:54:36.467Z,70.40
2018-09-17T10:57:05.426Z,69.70
2018-09-17T10:59:33.838Z,70.30
2018-09-17T11:02:02.275Z,69.00
2018-09-17T11:04:30.713Z,69.20
2018-09-17T11:06:59.596Z,67.30
2018-09-17T11:09:28.008Z,67.30
2018-09-17T11:11:57.668Z,66.40
2018-09-17T11:14:26.105Z,67.50
2018-09-17T11:16:54.555Z,65.70
2018-09-17T11:19:26.438Z,65.10
2018-09-17T11:21:54.861Z,66.10
2018-09-17T11:24:23.302Z,64.00
2018-09-17T11:26:51.855Z,62.80
2018-09-17T11:29:20.799Z,64.50
2018-09-17T11:31:49.263Z,62.60
2018-09-17T11:34:17.758Z,62.60
2018-09-17T11:36:48.906Z,60.60
2018-09-17T11:39:19.190Z,60.90
2018-09-17T11:41:47.651Z,61.80
2018-09-17T11:44:17.170Z,61.30
2018-09-17T11:46:47.459Z,60.00
2018-09-17T11:49:15.981Z,60.80
2018-09-17T11:51:45.254Z,59.50
2018-09-17T11:54:14.311Z,60.00
2018-09-17T11:56:42.911Z,59.20
2018-09-17T11:59:14.139Z,58.70
2018-09-17T12:01:48.055Z,58.00
2018-09-17T12:04:22.089Z,57.80
2018-09-17T12:06:58.146Z,57.80
2018-09-17T12:09:27.309Z,57.10
2018-09-17T12:11:56.036Z,57.60
2018-09-17T12:14:25.473Z,56.70
2018-09-17T12:16:55.218Z,55.80
2018-09-17T12:19:23.718Z,56.00
2018-09-17T12:21:52.183Z,56.10
2018-09-17T12:24:20.678Z,56.00
2018-09-17T12:26:49.161Z,54.50
2018-09-17T12:29:17.991Z,55.40
2018-09-17T12:31:46.547Z,54.40
2018-09-17T12:34:15.668Z,54.00
2018-09-17T12:36:44.323Z,54.70
2018-09-17T12:39:13.355Z,53.80
2018-09-17T12:41:41.856Z,53.90
2018-09-17T12:44:10.296Z,52.40
2018-09-17T12:46:39.753Z,51.70
2018-09-17T12:49:11.234Z,50.30
2018-09-17T12:51:39.711Z,49.90
2018-09-17T12:54:11.118Z,49.80
2018-09-17T12:56:39.597Z,48.80
2018-09-17T12:59:08.801Z,48.40
2018-09-17T13:01:40.138Z,47.40
2018-09-17T13:04:08.590Z,50.60
2018-09-17T13:06:37.001Z,50.70
2018-09-17T13:09:08.470Z,52.00
2018-09-17T13:11:36.923Z,51.40
2018-09-17T13:14:06.337Z,51.60
2018-09-17T13:16:37.843Z,51.10
2018-09-17T13:19:08.139Z,51.10
2018-09-17T13:21:36.749Z,51.70
2018-09-17T13:24:05.647Z,51.20
2018-09-17T13:26:34.585Z,50.90
2018-09-17T13:29:03.853Z,50.40
2018-09-17T13:31:35.602Z,50.50
2018-09-17T13:34:04.123Z,51.20
2018-09-17T13:36:33.078Z,51.50
2018-09-17T13:39:04.836Z,50.80
2018-09-17T13:41:33.827Z,50.50
2018-09-17T13:44:02.584Z,50.50
2018-09-17T13:46:35.059Z,50.50
2018-09-17T13:49:03.575Z,49.30
2018-09-17T13:51:34.552Z,49.90
2018-09-17T13:54:03.111Z,49.90
2018-09-17T13:56:31.661Z,49.70
2018-09-17T13:59:00.468Z,49.70
2018-09-17T14:01:29.010Z,50.60
2018-09-17T14:03:57.899Z,50.20
2018-09-17T14:06:27.735Z,49.60
2018-09-17T14:08:56.261Z,50.00
2018-09-17T14:11:25.080Z,50.00
2018-09-17T14:13:57.147Z,49.00
2018-09-17T14:16:31.760Z,47.60
2018-09-17T14:19:00.302Z,47.60
2018-09-17T14:21:29.613Z,48.10
2018-09-17T14:24:01.211Z,47.70
2018-09-17T14:26:30.598Z,47.70
2018-09-17T14:28:59.499Z,48.20
2018-09-17T14:31:38.512Z,47.40
2018-09-17T14:34:07.186Z,47.90
2018-09-17T14:36:36.128Z,48.50
2018-09-17T14:39:10.566Z,48.70
2018-09-17T14:41:39.100Z,48.40
2018-09-17T14:44:07.811Z,48.40
2018-09-17T14:46:36.341Z,48.70
2018-09-17T14:49:07.500Z,48.00
2018-09-17T14:51:36.676Z,48.10
2018-09-17T14:54:05.169Z,47.60
2018-09-17T14:56:35.804Z,46.30
2018-09-17T14:59:05.060Z,45.70
2018-09-17T15:01:33.677Z,45.30
2018-09-17T15:04:03.032Z,45.10
2018-09-17T15:06:31.847Z,45.10
2018-09-17T15:09:00.389Z,44.30
2018-09-17T15:11:29.525Z,44.20
2018-09-17T15:13:58.765Z,43.70
2018-09-17T15:16:27.393Z,43.70
2018-09-17T15:18:57.624Z,43.80
2018-09-17T15:21:26.163Z,43.60
2018-09-17T15:23:55.414Z,43.20
2018-09-17T15:26:26.988Z,42.80
2018-09-17T15:28:58.294Z,41.80
2018-09-17T15:31:26.852Z,42.20
2018-09-17T15:33:57.573Z,41.80
2018-09-17T15:36:26.254Z,42.10
2018-09-17T15:38:55.306Z,41.20
2018-09-17T15:41:26.843Z,42.00
2018-09-17T15:43:55.197Z,41.50
2018-09-17T15:46:23.716Z,39.80
2018-09-17T15:48:52.340Z,40.20
2018-09-17T15:51:20.883Z,40.20
2018-09-17T15:53:51.281Z,39.50
2018-09-17T15:56:19.916Z,40.30
2018-09-17T15:58:49.059Z,39.60
2018-09-17T16:01:18.438Z,39.60
2018-09-17T16:03:47.019Z,41.80
2018-09-17T16:06:15.819Z,39.90
2018-09-17T16:08:44.655Z,41.30
2018-09-17T16:11:15.577Z,40.70
2018-09-17T16:13:44.488Z,40.80
2018-09-17T16:16:19.797Z,40.00
2018-09-17T16:21:17.482Z,42.90
2018-09-17T16:23:47.901Z,45.40
2018-09-17T16:26:16.437Z,44.50
2018-09-17T16:28:44.913Z,43.60
2018-09-17T16:31:16.023Z,47.90
2018-09-17T16:33:44.546Z,45.80
2018-09-17T16:36:15.633Z,48.20
2018-09-17T16:38:44.161Z,45.60
2018-09-17T16:41:12.641Z,44.10
2018-09-17T16:43:41.221Z,44.90
2018-09-17T16:46:09.851Z,43.10
2018-09-17T16:48:42.957Z,42.90
2018-09-17T16:51:11.558Z,44.10
2018-09-17T16:53:40.373Z,45.10
2018-09-17T16:56:08.930Z,43.90
2018-09-17T16:58:38.080Z,47.00
2018-09-17T17:01:06.565Z,45.80
2018-09-17T17:03:35.192Z,47.60
2018-09-17T17:06:04.468Z,48.00
2018-09-17T17:08:33.008Z,50.40
2018-09-17T17:11:03.890Z,51.30
2018-09-17T17:13:34.254Z,51.80
2018-09-17T17:16:03.072Z,51.40
2018-09-17T17:18:35.991Z,50.40
2018-09-17T17:21:04.611Z,54.60
2018-09-17T17:23:33.113Z,55.40
2018-09-17T17:26:02.129Z,53.50
2018-09-17T17:28:34.927Z,51.80
2018-09-17T17:31:03.615Z,50.40
2018-09-17T17:33:36.294Z,54.90
2018-09-17T17:36:07.855Z,51.80
2018-09-17T17:38:39.241Z,49.40
2018-09-17T17:41:09.492Z,54.70
2018-09-17T17:43:40.516Z,51.50
2018-09-17T17:46:09.257Z,49.60
2018-09-17T17:48:37.694Z,52.10
2018-09-17T17:51:06.832Z,51.50
2018-09-17T17:53:37.707Z,52.00
2018-09-17T17:56:06.242Z,53.70
2018-09-17T17:58:34.800Z,54.80
2018-09-17T18:01:03.751Z,57.70
2018-09-17T18:03:33.381Z,56.90
2018-09-17T18:06:02.506Z,58.80
2018-09-17T18:08:31.084Z,54.60
2018-09-17T18:11:03.297Z,56.10
2018-09-17T18:13:31.897Z,58.80
2018-09-17T18:16:07.160Z,55.90
2018-09-17T18:18:35.749Z,56.30
2018-09-17T18:21:04.384Z,55.60
2018-09-17T18:23:33.205Z,57.00
2018-09-17T18:26:01.880Z,58.90
2018-09-17T18:28:30.531Z,60.90
2018-09-17T18:30:59.491Z,61.00
2018-09-17T18:33:28.221Z,62.00
2018-09-17T18:35:56.870Z,62.80
2018-09-17T18:38:25.740Z,62.50
2018-09-17T18:40:54.441Z,62.70
2018-09-17T18:43:24.046Z,63.10
2018-09-17T18:45:52.931Z,64.80
2018-09-17T18:48:22.054Z,66.30
2018-09-17T18:50:51.039Z,62.60
2018-09-17T18:53:20.262Z,65.00
2018-09-17T18:55:49.302Z,64.00
2018-09-17T18:58:17.994Z,67.00
2018-09-17T19:00:47.857Z,69.20
2018-09-17T19:03:16.951Z,69.80
2018-09-17T19:05:46.174Z,68.20
2018-09-17T19:08:14.892Z,69.10
2018-09-17T19:10:43.647Z,71.10
2018-09-17T19:13:12.816Z,71.70
2018-09-17T19:15:47.137Z,71.40
2018-09-17T19:18:18.234Z,72.40
2018-09-17T19:20:49.489Z,73.80
2018-09-17T19:23:23.136Z,73.80
2018-09-17T19:25:57.070Z,75.40
2018-09-17T19:28:31.732Z,75.60
2018-09-17T19:31:02.181Z,76.40
2018-09-17T19:33:31.317Z,78.50
2018-09-17T19:36:01.043Z,79.40
2018-09-17T19:38:35.364Z,79.10
2018-09-17T19:41:04.890Z,81.50
2018-09-17T19:43:33.595Z,82.90
2018-09-17T19:46:08.349Z,83.60
2018-09-17T19:48:37.092Z,84.90
2018-09-17T19:51:11.568Z,86.60
2018-09-17T19:53:40.409Z,86.20
2018-09-17T19:56:09.163Z,87.70
2018-09-17T19:58:43.994Z,88.90
2018-09-17T20:01:19.666Z,89.40
2018-09-17T20:03:48.636Z,90.00
2018-09-17T20:06:26.258Z,90.70
2018-09-17T20:08:56.767Z,91.60
2018-09-17T20:11:25.678Z,91.20
2018-09-17T20:13:55.213Z,91.50
2018-09-17T20:16:24.128Z,92.40
2018-09-17T20:18:52.993Z,91.90
2018-09-17T20:21:21.753Z,91.10
2018-09-17T20:23:50.569Z,92.30
2018-09-17T20:26:19.201Z,92.80
2018-09-17T20:28:48.165Z,93.30
2018-09-17T20:31:17.024Z,93.80
2018-09-17T20:33:48.399Z,94.10
2018-09-17T20:36:16.885Z,93.50
2018-09-17T20:38:45.604Z,94.60
2018-09-17T20:41:14.276Z,94.30
2018-09-17T20:43:46.999Z,94.00
2018-09-17T20:46:15.485Z,94.50
2018-09-17T20:48:44.064Z,94.60
2018-09-17T20:51:12.493Z,95.10
2018-09-17T20:53:40.986Z,95.50
2018-09-17T20:56:09.700Z,96.10
2018-09-17T20:58:38.101Z,96.30
2018-09-17T21:01:07.049Z,95.90
2018-09-17T21:03:35.529Z,96.80
2018-09-17T21:06:04.054Z,96.50
2018-09-17T21:08:32.554Z,96.00
2018-09-17T21:11:01.150Z,96.50
2018-09-17T21:13:29.819Z,97.00
2018-09-17T21:15:58.285Z,96.50
2018-09-17T21:18:26.842Z,96.60
2018-09-17T21:20:57.773Z,96.60
2018-09-17T21:23:26.281Z,97.20
2018-09-17T21:25:54.791Z,97.40
2018-09-17T21:28:23.383Z,97.30
2018-09-17T21:30:52.137Z,97.10
2018-09-17T21:33:20.558Z,97.00
2018-09-17T21:35:49.504Z,96.90
2018-09-17T21:38:18.094Z,97.30
2018-09-17T21:40:46.581Z,97.00
2018-09-17T21:43:15.195Z,97.20
2018-09-17T21:45:43.780Z,97.20
2018-09-17T21:48:12.518Z,97.30
2018-09-17T21:50:41.030Z,97.80
2018-09-17T21:53:09.566Z,96.70
2018-09-17T21:55:38.173Z,97.10
2018-09-17T21:58:06.745Z,97.10
2018-09-17T22:00:40.712Z,96.70
2018-09-17T22:03:15.981Z,97.40
2018-09-17T22:05:44.488Z,97.30
2018-09-17T22:08:12.956Z,97.40
2018-09-17T22:10:45.341Z,97.70
2018-09-17T22:13:14.545Z,97.90
2018-09-17T22:15:43.023Z,98.10
2018-09-17T22:18:11.496Z,98.10
2018-09-17T22:20:41.941Z,99.10
2018-09-17T22:23:10.651Z,98.70
2018-09-17T22:25:39.137Z,99.00
2018-09-17T22:28:07.590Z,99.60
2018-09-17T22:30:36.075Z,99.50
2018-09-17T22:33:04.580Z,99.00
2018-09-17T22:35:33.115Z,99.30
2018-09-17T22:38:01.616Z,99.50
2018-09-17T22:40:30.085Z,99.10
2018-09-17T22:42:58.616Z,99.40
2018-09-17T22:45:27.097Z,99.40
2018-09-17T22:47:55.576Z,99.50
2018-09-17T22:50:24.098Z,99.50
2018-09-17T22:52:52.584Z,99.50
2018-09-17T22:55:21.981Z,99.80
2018-09-17T22:57:50.503Z,99.90
2018-09-17T23:00:19.196Z,99.80
2018-09-17T23:02:47.654Z,99.90
2018-09-17T23:05:16.112Z,99.90
2018-09-17T23:07:44.610Z,99.80
2018-09-17T23:10:13.275Z,99.90
2018-09-17T23:12:43.108Z,99.90
2018-09-17T23:15:11.687Z,99.90
2018-09-17T23:17:40.147Z,99.90
2018-09-17T23:20:09.419Z,99.90
2018-09-17T23:22:37.824Z,99.90
2018-09-17T23:25:06.342Z,99.90
2018-09-17T23:27:35.202Z,99.90
2018-09-17T23:30:03.932Z,99.90
2018-09-17T23:32:37.391Z,99.90
2018-09-17T23:35:05.910Z,99.90
2018-09-17T23:37:34.374Z,99.90
2018-09-17T23:40:05.179Z,99.90
2018-09-17T23:42:35.752Z,99.90
2018-09-17T23:45:06.851Z,99.90
2018-09-17T23:47:35.289Z,99.90
2018-09-17T23:50:03.821Z,99.90
2018-09-17T23:52:32.323Z,99.90
2018-09-17T23:55:00.788Z,99.90
2018-09-17T23:57:29.218Z,99.90
2018-09-17T23:59:58.585Z,99.90
